createdAt,value
2023-02-11T00:01:13.400Z,59.20
2023-02-11T00:06:14.136Z,61.80
2023-02-11T00:11:14.836Z,65.00
2023-02-11T00:16:15.584Z,59.80
2023-02-11T00:21:16.262Z,62.00
2023-02-11T00:26:17.007Z,57.40
2023-02-11T00:31:17.839Z,58.60
2023-02-11T00:36:18.623Z,59.60
2023-02-11T00:41:19.376Z,59.70
2023-02-11T00:46:20.199Z,57.70
2023-02-11T00:51:20.886Z,58.30
2023-02-11T00:56:21.612Z,57.60
2023-02-11T01:01:22.401Z,56.50
2023-02-11T01:06:23.144Z,57.90
2023-02-11T01:11:23.863Z,60.80
2023-02-11T01:16:24.650Z,57.40
2023-02-11T01:21:25.437Z,59.90
2023-02-11T01:26:26.138Z,63.30
2023-02-11T01:31:26.900Z,63.40
2023-02-11T01:36:27.619Z,59.20
2023-02-11T01:41:28.349Z,55.50
2023-02-11T01:46:29.089Z,57.60
2023-02-11T01:51:29.804Z,58.70
2023-02-11T01:56:30.534Z,55.70
2023-02-11T02:01:31.343Z,57.70
2023-02-11T02:06:32.016Z,59.10
2023-02-11T02:11:32.734Z,61.90
2023-02-11T02:16:33.568Z,60.10
2023-02-11T02:21:34.290Z,58.50
2023-02-11T02:26:35.022Z,60.40
2023-02-11T02:31:35.757Z,60.20
2023-02-11T02:36:36.498Z,61.90
2023-02-11T02:41:37.174Z,56.90
2023-02-11T02:46:37.975Z,60.10
2023-02-11T02:51:38.685Z,59.40
2023-02-11T02:56:39.427Z,58.30
2023-02-11T03:01:40.126Z,56.90
2023-02-11T03:06:40.879Z,62.30
2023-02-11T03:11:41.591Z,62.60
2023-02-11T03:16:42.382Z,60.00
2023-02-11T03:21:43.090Z,60.10
2023-02-11T03:26:43.820Z,59.60
2023-02-11T03:31:44.673Z,62.10
2023-02-11T03:36:45.378Z,64.20
2023-02-11T03:41:46.080Z,65.80
2023-02-11T03:46:46.793Z,64.90
2023-02-11T03:51:47.533Z,66.70
2023-02-11T03:56:48.275Z,64.00
2023-02-11T04:01:48.996Z,67.40
2023-02-11T04:06:49.710Z,66.40
2023-02-11T04:11:50.448Z,69.70
2023-02-11T04:16:51.141Z,69.20
2023-02-11T04:21:51.876Z,66.90
2023-02-11T04:26:59.671Z,63.60
2023-02-11T04:31:53.479Z,73.00
2023-02-11T04:36:54.166Z,65.80
2023-02-11T04:41:54.902Z,67.90
2023-02-11T04:46:55.653Z,67.70
2023-02-11T04:51:56.325Z,70.40
2023-02-11T04:56:57.048Z,72.20
2023-02-11T05:01:57.824Z,73.90
2023-02-11T05:06:58.796Z,73.00
2023-02-11T05:11:58.994Z,73.20
2023-02-11T05:16:59.906Z,73.30
2023-02-11T05:22:03.487Z,74.70
2023-02-11T05:27:01.340Z,73.50
2023-02-11T05:32:02.131Z,74.50
2023-02-11T05:37:02.878Z,78.50
2023-02-11T05:42:03.612Z,78.90
2023-02-11T05:47:04.341Z,79.10
2023-02-11T05:52:05.093Z,84.60
2023-02-11T05:57:05.986Z,82.50
2023-02-11T06:02:06.625Z,85.80
2023-02-11T06:07:07.391Z,82.50
2023-02-11T06:12:08.208Z,86.30
2023-02-11T06:17:08.915Z,84.30
2023-02-11T06:22:09.608Z,87.70
2023-02-11T06:27:10.317Z,86.00
2023-02-11T06:32:28.114Z,89.60
2023-02-11T06:37:12.688Z,89.80
2023-02-11T06:42:12.335Z,93.90
2023-02-11T06:47:13.009Z,99.70
2023-02-11T06:52:13.770Z,97.40
2023-02-11T06:57:14.547Z,103.00
2023-02-11T07:02:15.414Z,102.40
2023-02-11T07:07:16.177Z,98.60
2023-02-11T07:12:16.883Z,95.40
2023-02-11T07:17:17.518Z,98.40
2023-02-11T07:22:18.289Z,97.70
2023-02-11T07:27:18.931Z,101.00
2023-02-11T07:32:19.775Z,96.00
2023-02-11T07:37:20.434Z,96.60
2023-02-11T07:42:21.107Z,98.50
2023-02-11T07:47:21.887Z,97.10
2023-02-11T07:52:22.510Z,92.70
2023-02-11T07:57:23.179Z,96.80
2023-02-11T08:02:23.958Z,94.30
2023-02-11T08:07:24.714Z,95.90
2023-02-11T08:12:25.452Z,91.00
2023-02-11T08:17:26.131Z,91.20
2023-02-11T08:22:26.798Z,98.30
2023-02-11T08:27:27.473Z,94.80
2023-02-11T08:32:28.208Z,93.60
2023-02-11T08:37:31.369Z,92.40
2023-02-11T08:42:29.313Z,93.70
2023-02-11T08:47:29.962Z,97.60
2023-02-11T08:52:30.687Z,91.50
2023-02-11T08:57:31.362Z,93.20
2023-02-11T09:02:32.137Z,94.80
2023-02-11T09:07:32.752Z,87.20
2023-02-11T09:12:33.490Z,91.80
2023-02-11T09:17:35.195Z,86.80
2023-02-11T09:22:34.825Z,85.70
2023-02-11T09:27:35.493Z,84.50
2023-02-11T09:32:36.205Z,83.30
2023-02-11T09:37:37.503Z,83.90
2023-02-11T09:42:37.663Z,85.50
2023-02-11T09:47:38.330Z,84.40
2023-02-11T09:52:39.100Z,85.20
2023-02-11T09:57:39.828Z,88.40
2023-02-11T10:02:40.498Z,79.90
2023-02-11T10:07:41.354Z,84.50
2023-02-11T10:12:42.153Z,77.30
2023-02-11T10:17:42.842Z,79.50
2023-02-11T10:22:43.523Z,83.00
2023-02-11T10:27:44.203Z,90.90
2023-02-11T10:32:44.876Z,79.80
2023-02-11T10:37:45.580Z,81.40
2023-02-11T10:42:48.248Z,83.00
2023-02-11T10:47:46.929Z,79.10
2023-02-11T10:52:47.615Z,83.20
2023-02-11T10:57:49.332Z,78.70
2023-02-11T11:02:48.981Z,77.10
2023-02-11T11:07:50.188Z,79.00
2023-02-11T11:12:50.339Z,78.30
2023-02-11T11:17:51.038Z,74.60
2023-02-11T11:22:51.725Z,78.30
2023-02-11T11:27:52.411Z,72.40
2023-02-11T11:32:53.085Z,72.70
2023-02-11T11:37:53.766Z,68.20
2023-02-11T11:42:54.468Z,61.10
2023-02-11T11:47:55.166Z,64.30
2023-02-11T11:52:55.868Z,63.70
2023-02-11T11:57:56.620Z,57.80
2023-02-11T12:02:57.377Z,60.30
2023-02-11T12:07:58.052Z,61.60
2023-02-11T12:12:58.714Z,53.00
2023-02-11T12:17:59.402Z,55.30
2023-02-11T12:23:00.129Z,51.60
2023-02-11T12:28:00.885Z,49.90
2023-02-11T12:33:01.679Z,47.80
2023-02-11T12:38:02.358Z,46.30
2023-02-11T12:43:03.078Z,43.00
2023-02-11T12:48:03.735Z,43.70
2023-02-11T12:53:04.507Z,43.20
2023-02-11T12:58:05.202Z,39.90
2023-02-11T13:03:05.876Z,43.20
2023-02-11T13:08:06.560Z,44.10
2023-02-11T13:13:07.348Z,42.40
2023-02-11T13:18:07.992Z,37.40
2023-02-11T13:23:08.669Z,39.50
2023-02-11T13:28:09.447Z,39.50
2023-02-11T13:33:10.207Z,39.80
2023-02-11T13:38:10.871Z,38.90
2023-02-11T13:43:11.552Z,38.50
2023-02-11T13:48:12.352Z,35.60
2023-02-11T13:53:15.703Z,33.50
2023-02-11T13:58:13.611Z,34.70
2023-02-11T14:03:14.293Z,34.40
2023-02-11T14:08:14.997Z,36.40
2023-02-11T14:13:15.660Z,32.60
2023-02-11T14:18:16.337Z,32.70
2023-02-11T14:23:17.039Z,33.30
2023-02-11T14:28:17.715Z,30.80
2023-02-11T14:33:18.395Z,30.10
2023-02-11T14:38:19.092Z,29.20
2023-02-11T14:43:19.799Z,28.20
2023-02-11T14:48:20.598Z,28.10
2023-02-11T14:53:21.346Z,27.70
2023-02-11T14:58:22.004Z,25.30
2023-02-11T15:03:22.803Z,27.70
2023-02-11T15:08:23.470Z,26.50
2023-02-11T15:13:24.168Z,24.10
2023-02-11T15:18:24.819Z,26.90
2023-02-11T15:23:25.495Z,23.80
2023-02-11T15:28:26.292Z,25.10
2023-02-11T15:33:26.954Z,23.70
2023-02-11T15:38:27.620Z,24.00
2023-02-11T15:43:28.397Z,23.30
2023-02-11T15:48:29.112Z,24.90
2023-02-11T15:53:29.792Z,23.90
2023-02-11T15:58:30.499Z,22.90
2023-02-11T16:03:31.150Z,22.80
2023-02-11T16:08:31.809Z,21.00
2023-02-11T16:13:32.524Z,22.30
2023-02-11T16:18:38.859Z,21.50
2023-02-11T16:23:34.786Z,19.70
2023-02-11T16:28:34.472Z,20.60
2023-02-11T16:33:35.864Z,19.50
2023-02-11T16:38:36.251Z,20.50
2023-02-11T16:43:36.933Z,19.30
2023-02-11T16:48:37.659Z,16.50
2023-02-11T16:53:38.439Z,16.10
2023-02-11T16:58:39.164Z,15.10
2023-02-11T17:03:39.915Z,15.30
2023-02-11T17:08:40.774Z,16.00
2023-02-11T17:13:41.548Z,16.90
2023-02-11T17:18:42.256Z,17.90
2023-02-11T17:23:43.056Z,17.90
2023-02-11T17:28:43.913Z,16.90
2023-02-11T17:33:44.616Z,15.70
2023-02-11T17:38:45.338Z,14.80
2023-02-11T17:43:46.072Z,14.50
2023-02-11T17:48:46.777Z,15.90
2023-02-11T17:53:47.500Z,15.80
2023-02-11T17:58:48.281Z,17.90
2023-02-11T18:03:49.054Z,18.10
2023-02-11T18:08:49.771Z,16.40
2023-02-11T18:13:50.651Z,17.30
2023-02-11T18:18:51.437Z,15.10
2023-02-11T18:23:52.184Z,16.80
2023-02-11T18:28:52.912Z,16.30
2023-02-11T18:33:53.699Z,15.20
2023-02-11T18:38:54.458Z,12.70
2023-02-11T18:43:55.197Z,20.30
2023-02-11T18:48:56.405Z,20.60
2023-02-11T18:53:56.705Z,15.70
2023-02-11T18:58:57.467Z,15.60
2023-02-11T19:03:58.287Z,15.10
2023-02-11T19:09:05.955Z,13.90
2023-02-11T19:13:59.711Z,15.00
2023-02-11T19:19:00.494Z,13.40
2023-02-11T19:24:01.204Z,14.30
2023-02-11T19:29:01.930Z,13.20
2023-02-11T19:34:02.646Z,16.40
2023-02-11T19:39:03.394Z,15.80
2023-02-11T19:44:04.152Z,17.00
2023-02-11T19:49:04.898Z,17.10
2023-02-11T19:54:05.666Z,18.10
2023-02-11T19:59:06.383Z,19.70
2023-02-11T20:04:07.210Z,15.80
2023-02-11T20:09:08.012Z,17.50
2023-02-11T20:14:08.748Z,14.90
2023-02-11T20:19:09.473Z,15.90
2023-02-11T20:24:10.272Z,17.40
2023-02-11T20:29:11.110Z,17.30
2023-02-11T20:34:11.811Z,19.20
2023-02-11T20:39:12.663Z,21.40
2023-02-11T20:44:13.402Z,16.50
2023-02-11T20:49:14.127Z,15.20
2023-02-11T20:54:14.922Z,16.90
2023-02-11T20:59:15.655Z,17.10
2023-02-11T21:04:16.397Z,18.00
2023-02-11T21:09:17.135Z,17.00
2023-02-11T21:14:17.928Z,16.80
2023-02-11T21:19:18.720Z,19.60
2023-02-11T21:24:19.449Z,19.00
2023-02-11T21:29:20.297Z,16.60
2023-02-11T21:34:21.054Z,19.40
2023-02-11T21:39:22.002Z,18.00
2023-02-11T21:44:22.738Z,18.40
2023-02-11T21:49:23.500Z,19.10
2023-02-11T21:54:24.277Z,18.80
2023-02-11T21:59:25.097Z,21.20
2023-02-11T22:04:25.840Z,21.40
2023-02-11T22:09:26.628Z,20.20
2023-02-11T22:14:27.369Z,22.40
2023-02-11T22:19:28.113Z,23.10
2023-02-11T22:24:28.817Z,21.60
2023-02-11T22:29:29.634Z,25.60
2023-02-11T22:34:30.385Z,23.40
2023-02-11T22:39:31.113Z,23.40
2023-02-11T22:44:31.836Z,24.00
2023-02-11T22:49:32.632Z,24.10
2023-02-11T22:54:33.348Z,22.40
2023-02-11T22:59:34.094Z,24.60
2023-02-11T23:04:34.798Z,26.90
2023-02-11T23:09:35.528Z,29.90
2023-02-11T23:14:36.325Z,28.80
2023-02-11T23:19:37.051Z,25.80
2023-02-11T23:24:37.876Z,30.10
2023-02-11T23:29:38.635Z,29.20
2023-02-11T23:34:39.331Z,25.30
2023-02-11T23:39:40.073Z,28.40
2023-02-11T23:44:40.826Z,27.60
2023-02-11T23:49:41.522Z,26.40
2023-02-11T23:54:42.246Z,26.80
2023-02-11T23:59:43.295Z,26.60
